Rosendale, Wisconsin
Current Conditions -  °F | °C
As of 8:53 AM on Sunday 21 Dec 2014 (Local Time) from KFLD Reporting Station
Haze Haze  
Wind Chill: 24°   Ceiling: 700
Heat Index: 33°   Visibility: 4mi
Dew Point: 29°   Wind: 13mph
Humidity: 85%   Direction: 170°S
Pressure: 30.12"   Gusts: NA
Location:  43.81°N, 88.67°W
Report Text: KFLD 211453Z AUTO 17011KT 4SM BR OVC007 01/M02 A3012 RMK AO2 SNB04E13 SLP208 P0000 60000 T00061017 58007
Loading
Personal Weather Stations






























Interactive Weather Map New forecast layout! Learn more

10-Day Weather Forecast

Advertisements
Track Severe Weather on mobile